Time;durP1;ratioP1;P1;durP2;ratioP2;P2;SDS_P1;SDS_P2;PMS_P1;PMS_P2;Temp;Humidity;BMP_temperature;BMP_pressure;BME280_temperature;BME280_humidity;BME280_pressure;Samples;Min_cycle;Max_cycle;Signal;HPM_P1;HPM_P2
2022/08/18 00:00:43;;;;;;;7.28;6.55;;;24.40;92.10;;;;;;5055189;28;20032;-79
2022/08/18 00:03:10;;;;;;;6.03;5.53;;;24.40;92.10;;;;;;5055129;28;20052;-79
2022/08/18 00:05:36;;;;;;;6.40;5.88;;;24.40;92.10;;;;;;5055211;28;20036;-79
2022/08/18 00:08:02;;;;;;;12.57;11.40;;;24.40;92.10;;;;;;5054646;28;20508;-79
2022/08/18 00:10:28;;;;;;;11.73;8.73;;;24.40;92.00;;;;;;5054960;28;20029;-79
2022/08/18 00:12:54;;;;;;;14.57;13.20;;;24.30;92.10;;;;;;5055056;28;20029;-79
2022/08/18 00:15:20;;;;;;;7.80;7.03;;;24.20;92.10;;;;;;5054833;28;20488;-79
2022/08/18 00:17:45;;;;;;;9.95;9.05;;;24.20;92.10;;;;;;5054819;28;20040;-79
2022/08/18 00:20:17;;;;;;;9.35;8.35;;;24.10;92.20;;;;;;5054938;28;20021;-79
2022/08/18 00:22:43;;;;;;;13.18;10.93;;;24.10;92.30;;;;;;5055160;28;20029;-79
2022/08/18 00:25:12;;;;;;;9.07;8.18;;;23.90;92.40;;;;;;5054263;28;20041;-79
2022/08/18 00:27:40;;;;;;;11.63;10.55;;;23.90;92.50;;;;;;5054795;28;20021;-79
2022/08/18 00:30:09;;;;;;;10.02;9.00;;;23.90;92.50;;;;;;5054520;28;20055;-79
2022/08/18 00:32:40;;;;;;;12.23;11.02;;;23.90;92.40;;;;;;5054533;28;20017;-79
2022/08/18 00:35:09;;;;;;;8.88;7.97;;;23.80;92.50;;;;;;5054402;28;20033;-79
2022/08/18 00:37:35;;;;;;;7.80;7.00;;;23.80;92.50;;;;;;5054163;28;20416;-79
2022/08/18 00:40:02;;;;;;;7.35;6.68;;;23.80;92.50;;;;;;5054341;28;20018;-79
2022/08/18 00:42:29;;;;;;;8.15;7.45;;;23.90;92.50;;;;;;5054315;28;20083;-79
2022/08/18 00:44:56;;;;;;;8.07;7.38;;;23.90;92.50;;;;;;5054432;28;20052;-79
2022/08/18 00:47:21;;;;;;;7.53;6.82;;;23.80;92.50;;;;;;5054250;28;20017;-79
2022/08/18 00:49:51;;;;;;;6.18;5.68;;;23.80;92.60;;;;;;5054131;28;20075;-79
2022/08/18 00:52:18;;;;;;;6.28;5.75;;;23.80;92.60;;;;;;5054063;28;20017;-79
2022/08/18 00:54:45;;;;;;;6.63;6.03;;;23.80;92.50;;;;;;5054118;28;20025;-79
2022/08/18 00:57:14;;;;;;;8.10;7.30;;;23.90;92.50;;;;;;5054048;28;20040;-79
2022/08/18 00:59:46;;;;;;;8.57;7.72;;;23.90;92.70;;;;;;5054611;28;20028;-79
2022/08/18 01:02:32;;;;;;;;;;;23.90;92.30;;;;;;5054766;28;20029;-79
2022/08/18 01:05:14;;;;;;;6.93;6.32;;;23.90;92.30;;;;;;5054306;28;19991;-79
2022/08/18 01:07:44;;;;;;;8.73;7.93;;;23.90;92.20;;;;;;5054088;28;20029;-79
2022/08/18 01:10:15;;;;;;;7.10;6.40;;;23.90;92.30;;;;;;5054110;28;20036;-79
2022/08/18 01:12:42;;;;;;;7.72;6.95;;;24.00;92.20;;;;;;5054147;28;20025;-79
2022/08/18 01:15:08;;;;;;;6.55;5.80;;;23.90;92.10;;;;;;5054030;28;20475;-79
2022/08/18 01:23:38;;;;;;;11.88;9.93;;;23.80;92.10;;;;;;5053720;28;20040;-79
2022/08/18 01:26:05;;;;;;;10.98;9.02;;;23.70;92.00;;;;;;5053780;28;20502;-79
2022/08/18 01:28:33;;;;;;;8.50;7.50;;;23.60;92.10;;;;;;5053870;28;20112;-79
2022/08/18 01:31:00;;;;;;;8.50;7.70;;;23.40;92.50;;;;;;5053643;28;20457;-79
2022/08/18 01:33:31;;;;;;;12.02;10.10;;;23.40;92.60;;;;;;5053815;28;20392;-79
2022/08/18 01:36:06;;;;;;;10.82;9.63;;;23.40;92.70;;;;;;5053698;28;20033;-79
2022/08/18 01:38:32;;;;;;;9.88;7.03;;;23.20;92.60;;;;;;5053794;28;20033;-79
2022/08/18 01:40:58;;;;;;;8.73;7.82;;;23.20;92.70;;;;;;5053452;28;20082;-79
2022/08/18 01:43:25;;;;;;;5.78;5.20;;;23.10;92.80;;;;;;5053720;28;20096;-79
2022/08/18 01:45:50;;;;;;;6.68;5.95;;;23.10;92.90;;;;;;5053594;28;20104;-79
2022/08/18 01:48:16;;;;;;;6.82;6.10;;;23.10;93.00;;;;;;5053475;28;20037;-79
2022/08/18 01:50:43;;;;;;;8.40;6.93;;;23.20;92.90;;;;;;5053269;28;20033;-79
2022/08/18 01:53:10;;;;;;;9.90;7.13;;;23.10;92.80;;;;;;5053380;28;20531;-79
2022/08/18 01:55:37;;;;;;;6.32;5.82;;;23.10;92.80;;;;;;5053527;28;20384;-78
2022/08/18 01:58:05;;;;;;;6.28;5.50;;;23.00;92.90;;;;;;5053453;28;20056;-79
2022/08/18 02:00:31;;;;;;;6.85;5.97;;;23.10;93.00;;;;;;5053492;28;20068;-79
2022/08/18 02:02:58;;;;;;;10.93;9.70;;;23.10;93.10;;;;;;5053395;28;20481;-79
2022/08/18 02:05:34;;;;;;;10.38;9.38;;;23.10;92.60;;;;;;5053840;28;20021;-79
2022/08/18 02:07:59;;;;;;;13.98;10.25;;;23.00;92.50;;;;;;5054122;28;20039;-78
2022/08/18 02:10:26;;;;;;;6.47;5.80;;;22.90;92.50;;;;;;5057490;28;20100;-79
2022/08/18 02:12:52;;;;;;;8.32;6.97;;;22.70;92.70;;;;;;5057525;28;20029;-78
2022/08/18 02:15:17;;;;;;;5.18;4.78;;;22.70;93.10;;;;;;5057437;28;20028;-79
2022/08/18 02:17:44;;;;;;;5.50;4.80;;;22.70;93.20;;;;;;5057367;28;20041;-79
2022/08/18 02:20:15;;;;;;;5.38;4.80;;;22.80;93.30;;;;;;5057395;28;20021;-79
2022/08/18 02:22:42;;;;;;;6.55;5.93;;;22.80;93.30;;;;;;5057230;28;20032;-79
2022/08/18 02:25:08;;;;;;;6.85;6.25;;;22.80;93.20;;;;;;5057165;28;20515;-79
2022/08/18 02:27:34;;;;;;;5.25;4.75;;;22.80;93.50;;;;;;5057058;28;20021;-79
2022/08/18 02:30:01;;;;;;;5.25;4.75;;;22.80;93.30;;;;;;5057064;28;20031;-79
2022/08/18 02:32:27;;;;;;;5.18;4.78;;;22.90;93.30;;;;;;5057138;28;20074;-79
2022/08/18 02:34:53;;;;;;;4.20;3.90;;;23.00;93.30;;;;;;5057111;28;20037;-78
2022/08/18 02:37:19;;;;;;;4.40;4.00;;;23.00;93.20;;;;;;5056812;28;20060;-79
2022/08/18 02:39:45;;;;;;;4.72;4.32;;;23.10;93.20;;;;;;5056853;28;20029;-79
2022/08/18 02:42:13;;;;;;;5.82;5.28;;;23.20;93.00;;;;;;5056680;28;20051;-79
2022/08/18 02:44:39;;;;;;;5.28;4.82;;;23.30;92.80;;;;;;5056851;28;20045;-79
2022/08/18 02:47:05;;;;;;;4.50;4.10;;;23.30;92.60;;;;;;5056927;28;20064;-79
2022/08/18 02:49:30;;;;;;;9.25;7.60;;;23.40;92.50;;;;;;5056959;28;20032;-78
2022/08/18 02:51:56;;;;;;;6.32;5.03;;;23.30;92.10;;;;;;5056790;28;20464;-79
2022/08/18 02:54:23;;;;;;;7.13;6.25;;;23.20;92.10;;;;;;5056681;28;20040;-79
2022/08/18 02:56:51;;;;;;;7.38;6.18;;;23.20;92.40;;;;;;5056664;28;20029;-79
2022/08/18 02:59:23;;;;;;;5.03;4.55;;;23.10;92.30;;;;;;5056553;28;20546;-79
2022/08/18 03:01:51;;;;;;;6.25;5.53;;;23.10;92.30;;;;;;5056448;28;20029;-79
2022/08/18 03:04:22;;;;;;;6.80;6.18;;;23.10;92.40;;;;;;5056575;28;20054;-79
2022/08/18 03:06:48;;;;;;;4.78;4.28;;;23.10;92.40;;;;;;5056598;28;20098;-79
2022/08/18 03:09:16;;;;;;;3.85;3.55;;;23.00;92.50;;;;;;5056303;28;20064;-79
2022/08/18 03:11:42;;;;;;;4.35;3.95;;;23.10;92.60;;;;;;5056326;28;20029;-79
2022/08/18 03:14:08;;;;;;;3.67;3.28;;;23.10;92.70;;;;;;5056116;28;20017;-78
2022/08/18 03:16:36;;;;;;;3.80;3.50;;;23.20;92.60;;;;;;5056193;28;20116;-79
2022/08/18 03:19:02;;;;;;;3.95;3.63;;;23.20;92.60;;;;;;5056030;28;20029;-79
2022/08/18 03:21:30;;;;;;;4.65;4.25;;;23.30;92.50;;;;;;5056136;28;20021;-79
2022/08/18 03:23:56;;;;;;;4.13;3.75;;;23.40;92.50;;;;;;5055894;28;20044;-79
2022/08/18 03:26:24;;;;;;;4.30;3.78;;;23.40;92.60;;;;;;5055770;28;20039;-79
2022/08/18 03:28:52;;;;;;;4.85;4.00;;;23.50;92.30;;;;;;5056523;28;20068;-79
2022/08/18 03:31:21;;;;;;;4.15;3.85;;;23.50;92.20;;;;;;5056092;28;20108;-79
2022/08/18 03:33:47;;;;;;;6.15;4.00;;;23.50;92.20;;;;;;5055662;28;20053;-79
2022/08/18 03:36:17;;;;;;;4.22;3.83;;;23.50;92.10;;;;;;5055859;28;20086;-79
2022/08/18 03:38:45;;;;;;;6.93;5.90;;;23.60;91.90;;;;;;5055745;28;20033;-79
2022/08/18 03:41:14;;;;;;;4.95;4.32;;;23.50;91.80;;;;;;5056132;28;20354;-79
2022/08/18 03:43:40;;;;;;;5.88;4.57;;;23.50;91.60;;;;;;5056190;28;20028;-79
2022/08/18 03:46:09;;;;;;;9.00;6.97;;;23.40;91.60;;;;;;5055639;28;20372;-79
2022/08/18 03:48:36;;;;;;;5.20;4.68;;;23.40;91.60;;;;;;5055522;28;20028;-79
2022/08/18 03:51:24;;;;;;;5.60;4.10;;;23.30;91.80;;;;;;5055649;28;20021;-79
2022/08/18 03:53:50;;;;;;;5.18;3.65;;;23.20;91.60;;;;;;5055683;28;20029;-79
2022/08/18 03:56:19;;;;;;;3.83;3.38;;;23.20;91.70;;;;;;5055518;28;20074;-79
2022/08/18 03:59:06;;;;;;;4.53;4.13;;;23.20;91.80;;;;;;5055578;28;20051;-79
2022/08/18 04:01:35;;;;;;;4.35;3.95;;;23.10;91.90;;;;;;5055423;28;20479;-78
2022/08/18 04:04:03;;;;;;;8.13;5.32;;;23.00;92.00;;;;;;5055556;28;20029;-79
2022/08/18 04:06:40;;;;;;;5.78;4.82;;;23.00;92.10;;;;;;5055392;28;20056;-79
2022/08/18 04:09:08;;;;;;;4.28;3.85;;;22.90;92.20;;;;;;5055320;28;20104;-79
2022/08/18 04:11:36;;;;;;;4.28;3.53;;;22.80;92.30;;;;;;5055438;28;20021;-78
2022/08/18 04:14:02;;;;;;;3.17;2.97;;;22.80;92.40;;;;;;5055169;28;20104;-78
2022/08/18 04:16:31;;;;;;;7.47;4.75;;;22.90;92.50;;;;;;5054898;28;20086;-78
2022/08/18 04:19:01;;;;;;;4.20;3.85;;;22.90;92.50;;;;;;5055246;28;20036;-77
2022/08/18 04:21:26;;;;;;;3.55;3.25;;;23.00;92.50;;;;;;5055170;28;20025;-78
2022/08/18 04:23:53;;;;;;;4.55;4.15;;;23.00;92.50;;;;;;5054663;28;20037;-78
2022/08/18 04:26:19;;;;;;;3.45;3.08;;;23.00;92.40;;;;;;5055004;28;20333;-78
2022/08/18 04:28:45;;;;;;;3.53;3.00;;;23.00;92.40;;;;;;5055008;28;20032;-77
2022/08/18 04:31:13;;;;;;;5.35;4.63;;;23.10;92.40;;;;;;5054673;28;20396;-77
2022/08/18 04:33:40;;;;;;;7.55;4.97;;;23.10;92.10;;;;;;5054618;28;20350;-77
2022/08/18 04:36:14;;;;;;;5.65;4.05;;;23.00;92.10;;;;;;5054772;28;20099;-78
2022/08/18 04:38:41;;;;;;;3.35;3.05;;;23.10;92.20;;;;;;5054877;28;20048;-78
2022/08/18 04:41:07;;;;;;;6.57;5.93;;;23.10;92.30;;;;;;5054688;28;20025;-77
2022/08/18 04:43:34;;;;;;;3.83;3.45;;;23.10;92.10;;;;;;5054625;28;20035;-78
2022/08/18 04:46:02;;;;;;;5.30;4.45;;;23.10;92.20;;;;;;5054662;28;20035;-78
2022/08/18 04:48:39;;;;;;;4.53;3.80;;;23.00;92.20;;;;;;5054611;28;20082;-77
2022/08/18 04:51:11;;;;;;;6.53;5.13;;;22.90;92.30;;;;;;5054678;28;20028;-77
2022/08/18 04:53:46;;;;;;;8.30;6.30;;;22.90;92.40;;;;;;5054554;28;20086;-78
2022/08/18 04:56:24;;;;;;;9.52;7.18;;;22.80;92.50;;;;;;5054264;28;20033;-77
2022/08/18 04:58:51;;;;;;;6.07;5.03;;;22.80;92.60;;;;;;5054364;28;20024;-78
2022/08/18 05:01:19;;;;;;;5.35;4.88;;;22.60;92.70;;;;;;5054410;28;20158;-78
2022/08/18 05:03:45;;;;;;;10.45;7.55;;;22.60;92.90;;;;;;5053826;28;20029;-77
2022/08/18 05:06:10;;;;;;;9.90;6.63;;;22.50;93.30;;;;;;5054074;28;20058;-77
2022/08/18 05:08:36;;;;;;;6.70;5.03;;;22.50;93.30;;;;;;5054153;28;20033;-77
2022/08/18 05:11:02;;;;;;;5.80;4.35;;;22.40;93.30;;;;;;5053509;28;20021;-77
2022/08/18 05:13:28;;;;;;;6.97;5.50;;;22.50;93.40;;;;;;5053912;28;20033;-77
2022/08/18 05:15:56;;;;;;;4.90;4.30;;;22.50;93.40;;;;;;5053603;28;20121;-77
2022/08/18 05:18:25;;;;;;;4.53;4.03;;;22.60;93.40;;;;;;5053536;28;20041;-78
2022/08/18 05:20:52;;;;;;;10.20;7.82;;;22.60;93.30;;;;;;5053235;28;20428;-77
2022/08/18 05:23:19;;;;;;;6.57;5.93;;;22.60;93.30;;;;;;5053681;28;20055;-77
2022/08/18 05:25:45;;;;;;;7.82;6.75;;;22.60;93.40;;;;;;5053650;28;20033;-77
2022/08/18 05:28:14;;;;;;;13.43;10.02;;;22.60;93.40;;;;;;5053522;28;20025;-77
2022/08/18 05:30:41;;;;;;;12.88;8.65;;;22.50;93.50;;;;;;5053718;28;20447;-77
2022/08/18 05:33:11;;;;;;;18.85;8.88;;;22.40;93.80;;;;;;5053042;28;20560;-77
2022/08/18 05:35:49;;;;;;;11.15;8.15;;;22.30;94.00;;;;;;5053614;28;20029;-77
2022/08/18 05:38:49;;;;;;;12.85;8.88;;;22.30;94.00;;;;;;5053577;28;20028;-77
2022/08/18 05:41:20;;;;;;;8.20;7.03;;;22.30;94.00;;;;;;5053245;28;20480;-77
2022/08/18 05:43:47;;;;;;;5.18;4.13;;;22.20;94.30;;;;;;5052013;28;20026;-77
2022/08/18 05:46:13;;;;;;;11.05;7.20;;;22.30;94.00;;;;;;5053150;28;20393;-77
2022/08/18 05:48:39;;;;;;;4.80;3.97;;;22.40;94.10;;;;;;5053070;28;20032;-77
2022/08/18 05:51:35;;;;;;;9.70;6.35;;;22.30;94.10;;;;;;5053140;28;20025;-78
2022/08/18 05:56:50;;;;;;;6.57;4.85;;;22.40;94.10;;;;;;5053142;28;20400;-77
2022/08/18 05:59:33;;;;;;;5.70;3.15;;;22.40;94.00;;;;;;5052913;28;20021;-78
2022/08/18 06:02:31;;;;;;;6.10;2.95;;;22.40;94.00;;;;;;5053249;28;20029;-77
2022/08/18 06:05:02;;;;;;;8.00;5.68;;;22.50;93.90;;;;;;5052890;28;20025;-78
2022/08/18 06:07:39;;;;;;;4.22;3.30;;;22.60;94.00;;;;;;5053254;28;20036;-78
2022/08/18 06:10:07;;;;;;;5.15;3.83;;;22.50;94.10;;;;;;5052900;28;20021;-80
2022/08/18 06:12:35;;;;;;;4.28;3.88;;;22.60;94.00;;;;;;5053253;28;20036;-77
2022/08/18 06:15:12;;;;;;;4.60;3.15;;;22.60;94.10;;;;;;5052780;28;20029;-78
2022/08/18 06:18:21;;;;;;;5.78;3.88;;;22.60;93.90;;;;;;5053149;28;20392;-78
2022/08/18 06:21:18;;;;;;;3.45;3.08;;;22.70;93.90;;;;;;5040744;28;20033;-78
2022/08/18 06:23:59;;;;;;;7.30;4.05;;;22.70;93.80;;;;;;5052485;28;20514;-77
2022/08/18 06:26:49;;;;;;;5.35;3.70;;;22.70;93.80;;;;;;5052657;28;20060;-78
2022/08/18 06:29:21;;;;;;;6.90;4.80;;;22.70;93.80;;;;;;5052840;28;20037;-78
2022/08/18 06:32:16;;;;;;;3.72;2.97;;;22.80;93.70;;;;;;5052675;28;20033;-78
2022/08/18 06:35:17;;;;;;;4.88;3.70;;;22.90;93.50;;;;;;5053001;28;20036;-79
2022/08/18 06:41:19;;;;;;;4.65;3.60;;;23.10;93.30;;;;;;5052469;28;20400;-79
2022/08/18 06:44:06;;;;;;;9.27;4.32;;;23.10;93.20;;;;;;5052621;28;20021;-79
2022/08/18 06:46:40;;;;;;;9.10;5.47;;;23.20;93.10;;;;;;5052556;28;20027;-79
2022/08/18 06:49:10;;;;;;;3.78;3.10;;;23.10;92.90;;;;;;5052241;28;20021;-78
2022/08/18 06:51:36;;;;;;;4.47;2.90;;;23.10;92.90;;;;;;5052702;28;20056;-78
2022/08/18 06:54:05;;;;;;;8.93;4.80;;;23.20;92.90;;;;;;5053365;28;20106;-78
2022/08/18 06:56:40;;;;;;;3.78;3.35;;;23.10;92.90;;;;;;5055951;28;20029;-78
2022/08/18 06:59:25;;;;;;;4.30;2.83;;;23.10;92.90;;;;;;5056061;28;20025;-78
2022/08/18 07:02:11;;;;;;;9.68;4.20;;;23.20;92.80;;;;;;5056050;28;20033;-78
2022/08/18 07:05:07;;;;;;;3.58;2.83;;;23.30;92.60;;;;;;5056438;28;20021;-78
2022/08/18 07:07:40;;;;;;;6.63;4.78;;;23.40;92.50;;;;;;5056367;28;20083;-78
2022/08/18 07:10:14;;;;;;;4.75;3.20;;;23.40;92.50;;;;;;5056065;28;20116;-79
2022/08/18 07:12:40;;;;;;;6.85;4.20;;;23.40;92.70;;;;;;5055977;28;20503;-80
2022/08/18 07:15:10;;;;;;;6.35;4.43;;;23.40;92.80;;;;;;5055783;28;20101;-78
2022/08/18 07:17:37;;;;;;;6.07;4.55;;;23.40;92.80;;;;;;5055528;28;20076;-78
2022/08/18 07:20:16;;;;;;;5.13;4.30;;;23.40;93.00;;;;;;5056031;28;20104;-78
2022/08/18 07:23:00;;;;;;;6.20;3.58;;;23.40;92.70;;;;;;5055961;28;20029;-78
2022/08/18 07:25:39;;;;;;;7.30;4.93;;;23.50;92.60;;;;;;5055683;28;20045;-78
2022/08/18 07:28:06;;;;;;;9.85;4.95;;;23.40;92.60;;;;;;5055516;28;20072;-78
2022/08/18 07:30:39;;;;;;;8.55;4.03;;;23.40;92.50;;;;;;5055994;28;20025;-78
2022/08/18 07:33:23;;;;;;;5.90;4.32;;;23.50;92.40;;;;;;5055553;28;20150;-78
2022/08/18 07:35:57;;;;;;;6.22;4.07;;;23.50;92.20;;;;;;5055621;28;20035;-78
2022/08/18 07:38:35;;;;;;;8.27;3.35;;;23.40;92.20;;;;;;5055654;28;20078;-78
2022/08/18 07:41:13;;;;;;;3.78;2.55;;;23.30;92.20;;;;;;5055726;28;20080;-79
2022/08/18 07:43:50;;;;;;;3.72;2.80;;;23.30;92.20;;;;;;5055187;28;20057;-79
2022/08/18 07:46:22;;;;;;;4.35;3.00;;;23.40;92.20;;;;;;5055396;28;20025;-79
2022/08/18 07:48:48;;;;;;;4.43;3.05;;;23.40;92.20;;;;;;5055212;28;20025;-78
2022/08/18 07:51:27;;;;;;;11.93;6.50;;;23.50;92.30;;;;;;5055666;28;20033;-78
2022/08/18 07:54:09;;;;;;;4.78;3.28;;;23.50;92.30;;;;;;5055442;28;20064;-79
2022/08/18 07:56:49;;;;;;;4.60;3.10;;;23.60;92.30;;;;;;5055015;28;20029;-79
2022/08/18 07:59:29;;;;;;;6.32;3.15;;;23.80;92.20;;;;;;5055296;28;20040;-78
2022/08/18 08:02:24;;;;;;;5.10;2.78;;;23.90;92.00;;;;;;5055267;28;20079;-79
2022/08/18 08:05:16;;;;;;;4.80;2.53;;;23.90;91.70;;;;;;5051682;28;20037;-79
2022/08/18 08:07:54;;;;;;;4.78;2.70;;;24.00;91.60;;;;;;5054841;28;20028;-79
2022/08/18 08:10:32;;;;;;;8.25;3.53;;;24.10;91.20;;;;;;5055025;28;20419;-79
2022/08/18 08:13:12;;;;;;;2.95;2.63;;;24.00;90.90;;;;;;5055251;28;20357;-79
2022/08/18 08:15:38;;;;;;;5.70;2.72;;;24.00;91.20;;;;;;5054883;28;20025;-79
2022/08/18 08:18:15;;;;;;;8.18;3.03;;;24.10;92.00;;;;;;5054689;28;20091;-79
2022/08/18 08:20:51;;;;;;;8.27;3.05;;;24.20;91.90;;;;;;5054624;28;20096;-79
2022/08/18 08:23:23;;;;;;;4.82;2.53;;;24.30;91.60;;;;;;5054657;28;20090;-79
2022/08/18 08:26:22;;;;;;;9.07;3.47;;;24.50;91.10;;;;;;5055079;28;20033;-79
2022/08/18 08:29:05;;;;;;;7.15;3.10;;;24.70;91.10;;;;;;5054511;28;20036;-79
2022/08/18 08:31:41;;;;;;;4.80;2.50;;;24.90;90.40;;;;;;5054886;28;20029;-79
2022/08/18 08:34:31;;;;;;;5.60;2.65;;;25.00;89.20;;;;;;5054486;28;20052;-79
2022/08/18 08:37:10;;;;;;;2.47;1.98;;;25.00;88.00;;;;;;5054666;28;20112;-79
2022/08/18 08:39:44;;;;;;;6.50;3.05;;;24.90;88.40;;;;;;5054371;28;20484;-79
2022/08/18 08:42:30;;;;;;;6.32;3.13;;;24.70;87.90;;;;;;5054075;28;20029;-79
2022/08/18 08:45:02;;;;;;;5.03;2.78;;;24.60;88.10;;;;;;5054718;28;20564;-79
2022/08/18 08:48:08;;;;;;;3.28;2.30;;;24.50;88.20;;;;;;5054604;28;20480;-79
2022/08/18 08:50:49;;;;;;;5.60;2.58;;;24.30;88.70;;;;;;5031975;28;20123;-79
2022/08/18 08:53:39;;;;;;;3.42;1.77;;;24.30;88.90;;;;;;5052444;28;20361;-79
2022/08/18 08:56:13;;;;;;;4.45;2.42;;;24.30;89.00;;;;;;5054126;28;20048;-79
2022/08/18 08:58:48;;;;;;;3.90;2.00;;;24.30;88.90;;;;;;5053764;28;20025;-79
2022/08/18 09:01:40;;;;;;;3.40;2.30;;;24.20;88.70;;;;;;5053988;28;20425;-79
2022/08/18 09:04:45;;;;;;;4.03;2.20;;;24.30;89.20;;;;;;5045247;28;20432;-79
2022/08/18 09:07:49;;;;;;;3.88;2.60;;;24.20;89.40;;;;;;5053760;28;20469;-79
2022/08/18 09:10:40;;;;;;;6.50;3.67;;;24.30;90.00;;;;;;5050364;28;20041;-79
2022/08/18 09:13:46;;;;;;;5.75;3.45;;;24.50;89.50;;;;;;5053840;28;20029;-79
2022/08/18 09:16:50;;;;;;;4.65;2.88;;;24.70;89.70;;;;;;5053730;28;20053;-79
2022/08/18 09:19:24;;;;;;;3.75;2.33;;;24.80;88.10;;;;;;5053550;28;20103;-79
2022/08/18 09:22:06;;;;;;;5.18;2.13;;;25.10;88.40;;;;;;5053194;28;20032;-79
2022/08/18 09:25:07;;;;;;;4.93;2.22;;;25.30;87.90;;;;;;5053436;28;20057;-79
2022/08/18 09:27:44;;;;;;;3.50;2.00;;;25.60;86.80;;;;;;5049647;28;20033;-79
2022/08/18 09:30:38;;;;;;;4.20;1.95;;;25.50;83.10;;;;;;5053194;28;20028;-79
2022/08/18 09:33:13;;;;;;;5.55;2.50;;;25.20;84.20;;;;;;5053533;28;20032;-79
2022/08/18 09:35:48;;;;;;;3.58;1.63;;;25.10;84.90;;;;;;5053248;28;20025;-79
2022/08/18 09:41:34;;;;;;;2.97;1.60;;;24.80;85.60;;;;;;5053261;28;20067;-78
2022/08/18 09:44:13;;;;;;;2.17;1.88;;;24.80;84.40;;;;;;5052953;28;20091;-79
2022/08/18 09:46:59;;;;;;;4.70;1.98;;;24.80;84.90;;;;;;5053420;28;20013;-79
2022/08/18 09:49:24;;;;;;;3.53;1.95;;;24.90;85.20;;;;;;5052937;28;20028;-79
2022/08/18 09:51:59;;;;;;;5.03;1.98;;;25.10;86.10;;;;;;5053225;28;20025;-79
2022/08/18 09:54:30;;;;;;;5.35;2.00;;;25.30;84.00;;;;;;5053263;28;20076;-79
2022/08/18 09:57:16;;;;;;;4.55;1.90;;;25.50;84.30;;;;;;5052894;28;20131;-79
2022/08/18 09:59:46;;;;;;;3.00;1.60;;;25.80;84.50;;;;;;5053046;28;20029;-79
2022/08/18 10:02:31;;;;;;;2.75;1.65;;;25.80;83.70;;;;;;5053157;28;20032;-79
2022/08/18 10:05:21;;;;;;;1.90;1.40;;;25.70;83.40;;;;;;5052359;28;20025;-79
2022/08/18 10:08:01;;;;;;;3.40;1.67;;;25.60;82.80;;;;;;5052556;28;20024;-79
2022/08/18 10:10:36;;;;;;;3.78;1.80;;;25.50;83.30;;;;;;5052767;28;20069;-79
2022/08/18 10:13:25;;;;;;;4.13;1.85;;;25.40;82.80;;;;;;5052896;28;20036;-79
2022/08/18 10:16:24;;;;;;;1.80;1.40;;;25.20;82.40;;;;;;5052730;28;20521;-79
2022/08/18 10:19:15;;;;;;;2.75;1.55;;;25.10;83.40;;;;;;5053118;28;20071;-79
2022/08/18 10:22:05;;;;;;;4.55;2.00;;;25.20;83.80;;;;;;5052626;28;20051;-79
2022/08/18 10:24:53;;;;;;;3.70;1.80;;;25.10;84.00;;;;;;5052446;28;20367;-79
2022/08/18 10:27:43;;;;;;;4.70;1.70;;;25.00;83.50;;;;;;5053153;28;20098;-79
2022/08/18 10:30:32;;;;;;;3.80;1.73;;;24.90;84.20;;;;;;5055581;28;20021;-77
2022/08/18 10:33:03;;;;;;;1.92;1.35;;;25.00;84.50;;;;;;5056575;28;20025;-78
2022/08/18 10:35:35;;;;;;;2.20;2.00;;;25.00;83.90;;;;;;5056856;28;20025;-78
2022/08/18 10:38:22;;;;;;;3.85;2.17;;;25.00;83.90;;;;;;5056671;28;20048;-77
2022/08/18 10:41:00;;;;;;;3.30;1.80;;;25.10;83.30;;;;;;5056255;28;20028;-77
2022/08/18 10:43:41;;;;;;;3.70;1.88;;;25.10;83.10;;;;;;5056612;28;20029;-76
2022/08/18 10:46:20;;;;;;;4.00;1.92;;;25.40;82.80;;;;;;5056797;28;20029;-76
2022/08/18 10:49:14;;;;;;;2.97;1.70;;;25.70;82.00;;;;;;5056616;28;20384;-77
2022/08/18 10:51:47;;;;;;;2.95;1.60;;;25.80;81.40;;;;;;5056170;28;20021;-77
2022/08/18 10:54:43;;;;;;;2.50;1.48;;;25.70;81.20;;;;;;5055086;28;20084;-77
2022/08/18 10:57:34;;;;;;;2.42;1.60;;;25.70;82.20;;;;;;5053941;28;20037;-77
2022/08/18 11:00:18;;;;;;;3.30;1.50;;;25.70;81.40;;;;;;5053666;28;20484;-77
2022/08/18 11:03:07;;;;;;;2.10;1.80;;;25.70;80.90;;;;;;5056230;28;20035;-77
2022/08/18 11:05:33;;;;;;;3.65;1.70;;;25.70;80.70;;;;;;5055423;28;20495;-76
2022/08/18 11:08:03;;;;;;;3.08;1.67;;;25.70;80.60;;;;;;5054802;28;20025;-77
2022/08/18 11:10:47;;;;;;;3.28;1.67;;;25.70;80.90;;;;;;5054545;28;20067;-77
2022/08/18 11:13:23;;;;;;;3.30;1.60;;;25.80;81.10;;;;;;5053483;28;20021;-77
2022/08/18 11:16:03;;;;;;;2.83;1.40;;;25.80;81.10;;;;;;5052745;28;20422;-77
2022/08/18 11:18:33;;;;;;;1.95;1.60;;;25.80;81.20;;;;;;5052592;28;20021;-78
2022/08/18 11:21:35;;;;;;;2.85;1.80;;;25.80;81.20;;;;;;5054007;28;20480;-77
2022/08/18 11:24:08;;;;;;;2.80;1.85;;;25.80;81.30;;;;;;5054827;28;20056;-78
2022/08/18 11:26:39;;;;;;;3.42;1.92;;;25.80;81.40;;;;;;5055548;28;20033;-83
2022/08/18 11:29:35;;;;;;;4.20;2.50;;;25.80;81.50;;;;;;5055746;28;20406;-82
2022/08/18 11:32:10;;;;;;;3.47;2.80;;;25.70;81.70;;;;;;5055963;28;20385;-82
2022/08/18 11:34:41;;;;;;;3.90;2.28;;;25.60;81.50;;;;;;5055611;28;20028;-82
2022/08/18 11:37:21;;;;;;;7.40;2.57;;;25.60;81.70;;;;;;5055589;28;20091;-82
2022/08/18 11:39:50;;;;;;;4.95;2.10;;;25.50;81.90;;;;;;5055532;28;20108;-82
2022/08/18 11:42:18;;;;;;;4.63;2.35;;;25.50;82.20;;;;;;5054322;28;20025;-82
2022/08/18 11:44:45;;;;;;;5.63;2.60;;;25.50;82.30;;;;;;5055786;28;20036;-82
2022/08/18 11:47:19;;;;;;;5.50;2.47;;;25.50;82.60;;;;;;5055331;28;20054;-82
2022/08/18 11:50:15;;;;;;;4.90;3.17;;;25.50;82.70;;;;;;5055588;28;20021;-80
2022/08/18 11:52:51;;;;;;;4.95;2.55;;;25.50;82.50;;;;;;5054745;28;20347;-81
2022/08/18 11:55:28;;;;;;;6.13;3.50;;;25.50;82.70;;;;;;5055464;28;20029;-83
2022/08/18 11:57:55;;;;;;;5.30;2.60;;;25.40;82.90;;;;;;5055017;28;20115;-81
2022/08/18 12:00:52;;;;;;;5.90;3.35;;;25.40;83.00;;;;;;5054854;28;20075;-81
2022/08/18 12:03:39;;;;;;;6.00;2.78;;;25.30;82.60;;;;;;5055255;28;20032;-81
2022/08/18 12:06:29;;;;;;;4.20;2.70;;;25.30;82.40;;;;;;5055397;28;20025;-82
2022/08/18 12:09:00;;;;;;;4.45;2.45;;;25.20;82.60;;;;;;5054729;28;20032;-81
2022/08/18 12:11:33;;;;;;;3.45;2.15;;;25.20;82.70;;;;;;5055080;28;20032;-81
2022/08/18 12:14:20;;;;;;;4.47;2.60;;;25.30;82.90;;;;;;5055113;28;20029;-81
2022/08/18 12:16:47;;;;;;;3.20;2.33;;;25.20;82.70;;;;;;5054624;28;20036;-81
2022/08/18 12:19:13;;;;;;;4.60;2.65;;;25.30;83.00;;;;;;5054428;28;20018;-81
2022/08/18 12:21:50;;;;;;;4.35;2.20;;;25.20;81.90;;;;;;5054253;28;20567;-75
2022/08/18 12:24:24;;;;;;;4.88;2.13;;;25.20;82.70;;;;;;5054462;28;20068;-80
2022/08/18 12:26:51;;;;;;;7.05;2.60;;;25.20;83.10;;;;;;5054209;28;20033;-80
2022/08/18 12:29:18;;;;;;;2.63;2.08;;;25.30;83.10;;;;;;5054697;28;20029;-80
2022/08/18 12:31:50;;;;;;;4.93;2.08;;;25.40;82.80;;;;;;5054520;28;20044;-80
2022/08/18 12:34:16;;;;;;;2.85;1.90;;;25.50;82.50;;;;;;5054384;28;20029;-80
2022/08/18 12:36:42;;;;;;;5.20;2.10;;;25.60;82.10;;;;;;5054466;28;20068;-79
2022/08/18 12:39:08;;;;;;;2.75;1.48;;;25.70;81.80;;;;;;5054237;28;20115;-81
2022/08/18 12:41:33;;;;;;;2.92;1.85;;;25.70;81.00;;;;;;5054331;28;20040;-81
2022/08/18 12:43:59;;;;;;;4.20;2.13;;;25.70;80.40;;;;;;5054090;28;20383;-81
2022/08/18 12:46:25;;;;;;;4.35;2.00;;;25.70;79.90;;;;;;5054019;28;20017;-81
2022/08/18 12:48:50;;;;;;;2.58;1.73;;;25.60;79.80;;;;;;5053688;28;20051;-80
2022/08/18 12:51:16;;;;;;;2.22;1.75;;;25.60;80.30;;;;;;5053951;28;20017;-81
2022/08/18 12:53:42;;;;;;;3.90;1.92;;;25.60;80.60;;;;;;5054004;28;20052;-81
2022/08/18 12:56:24;;;;;;;5.72;2.38;;;25.60;80.70;;;;;;5054147;28;20060;-81
2022/08/18 12:58:50;;;;;;;2.97;2.17;;;25.60;81.00;;;;;;5053760;28;20033;-81
2022/08/18 13:01:18;;;;;;;4.93;2.25;;;25.50;81.20;;;;;;5053916;28;20021;-81
2022/08/18 13:03:46;;;;;;;2.78;2.15;;;25.40;81.20;;;;;;5053895;28;20082;-81
2022/08/18 13:06:12;;;;;;;4.03;2.03;;;25.40;80.90;;;;;;5054094;28;20029;-81
2022/08/18 13:08:38;;;;;;;8.18;2.97;;;25.40;80.70;;;;;;5053941;28;20025;-81
2022/08/18 13:11:09;;;;;;;3.33;2.28;;;25.20;81.20;;;;;;5053752;28;20102;-81
2022/08/18 13:13:39;;;;;;;3.72;2.33;;;25.20;81.90;;;;;;5053597;28;20032;-81
2022/08/18 13:16:06;;;;;;;3.03;1.90;;;25.20;82.20;;;;;;5053936;28;20025;-81
2022/08/18 13:18:32;;;;;;;4.70;1.80;;;25.20;82.30;;;;;;5053819;28;20033;-81
2022/08/18 13:20:59;;;;;;;3.65;2.03;;;25.20;82.40;;;;;;5053879;28;20020;-81
2022/08/18 13:23:26;;;;;;;2.58;1.75;;;25.20;82.10;;;;;;5053384;28;20029;-81
2022/08/18 13:25:52;;;;;;;3.35;1.88;;;25.30;82.20;;;;;;5053643;28;20025;-81
2022/08/18 13:28:17;;;;;;;3.25;1.85;;;25.30;82.30;;;;;;5053076;28;20102;-81
2022/08/18 13:30:44;;;;;;;3.20;1.90;;;25.40;82.50;;;;;;5053331;28;20060;-81
2022/08/18 13:33:10;;;;;;;2.65;1.75;;;25.40;82.50;;;;;;5053643;28;20029;-81
2022/08/18 13:35:36;;;;;;;3.00;2.13;;;25.50;82.60;;;;;;5053683;28;20025;-81